Barrancas, Argentina
Current Conditions -  °F | °C
As of 12:00 AM on Wednesday 22 Oct 2014 (Local Time) from SAAR Reporting Station
Clear Clear  
Wind Chill: 21°   Ceiling: Unl
Heat Index: 21°   Visibility: 6mi
Dew Point: 14°   Wind: 7mph
Humidity: 64%   Direction: 20°NNE
Pressure: 30"   Gusts: NA
Location:  32.23°S, 60.98°W
Report Text: SAAR 220300Z 02006KT CAVOK 21/14 Q1016
Loading
Personal Weather Stations






























Interactive Weather Map
Tropical Storm Tracking
New forecast layout! Learn more

10-Day Weather Forecast

Advertisements
Track Severe Weather on mobile